Time;durP1;ratioP1;P1;durP2;ratioP2;P2;SDS_P1;SDS_P2;PMS_P1;PMS_P2;Temp;Humidity;BMP_temperature;BMP_pressure;BME280_temperature;BME280_humidity;BME280_pressure;Samples;Min_cycle;Max_cycle;Signal;HPM_P1;HPM_P2
2022/11/25 00:01:29;;;;;;;6.40;1.33;;;29.50;87.50;;;;;;5072502;28;20168;-72
2022/11/25 00:03:58;;;;;;;2.30;0.93;;;29.20;84.00;;;;;;5072437;28;20176;-70
2022/11/25 00:06:31;;;;;;;3.93;1.17;;;28.50;90.80;;;;;;5072469;28;20568;-71
2022/11/25 00:09:02;;;;;;;3.00;0.87;;;29.10;91.70;;;;;;5073288;28;20176;-70
2022/11/25 00:11:30;;;;;;;4.57;1.00;;;28.80;86.40;;;;;;5076066;28;20184;-68
2022/11/25 00:13:58;;;;;;;1.00;0.80;;;28.40;90.20;;;;;;5075817;28;20187;-69
2022/11/25 00:16:26;;;;;;;3.80;1.10;;;28.40;91.00;;;;;;5075949;28;20168;-68
2022/11/25 00:18:55;;;;;;;3.07;1.20;;;29.00;90.70;;;;;;5075761;28;20182;-68
2022/11/25 00:21:26;;;;;;;2.97;1.10;;;29.20;85.20;;;;;;5075736;28;20172;-70
2022/11/25 00:23:59;;;;;;;7.57;1.00;;;29.30;77.50;;;;;;5075802;28;20176;-69
2022/11/25 00:26:31;;;;;;;3.53;1.07;;;29.30;81.60;;;;;;5075771;28;20205;-68
2022/11/25 00:29:01;;;;;;;3.17;1.20;;;28.90;84.10;;;;;;5075505;28;20184;-68
2022/11/25 00:31:32;;;;;;;1.37;0.83;;;29.40;87.00;;;;;;5091324;28;20186;-68
2022/11/25 00:34:00;;;;;;;2.37;0.63;;;29.70;85.10;;;;;;5075568;28;20175;-69
2022/11/25 00:36:33;;;;;;;3.90;0.70;;;30.00;68.90;;;;;;5075588;28;20183;-68
2022/11/25 00:39:03;;;;;;;2.47;0.63;;;30.10;65.50;;;;;;5075709;28;20215;-68
2022/11/25 00:44:34;;;;;;;2.50;0.83;;;30.40;68.70;;;;;;5076108;28;20206;-68
2022/11/25 00:47:21;;;;;;;3.67;0.83;;;30.30;69.40;;;;;;5075435;28;20219;-69
2022/11/25 00:49:51;;;;;;;2.37;0.57;;;30.50;59.30;;;;;;5075168;28;20180;-71
2022/11/25 00:52:24;;;;;;;5.50;0.50;;;30.30;61.80;;;;;;5075157;28;20271;-73
2022/11/25 00:54:53;;;;;;;4.53;0.83;;;30.20;58.00;;;;;;5075221;28;20254;-72
2022/11/25 00:57:23;;;;;;;3.33;0.70;;;30.00;56.60;;;;;;5075444;28;20533;-71
2022/11/25 00:59:51;;;;;;;3.13;1.00;;;29.90;58.90;;;;;;5090878;28;20649;-72
2022/11/25 01:02:19;;;;;;;7.40;1.10;;;29.90;59.40;;;;;;5074869;28;20168;-70
2022/11/25 01:04:47;;;;;;;2.20;0.70;;;30.50;63.20;;;;;;5074771;28;20269;-72
2022/11/25 01:07:16;;;;;;;6.33;0.60;;;30.50;61.70;;;;;;5074690;28;20208;-70
2022/11/25 01:09:44;;;;;;;1.30;0.70;;;30.90;58.00;;;;;;5074866;28;20252;-69
2022/11/25 01:12:11;;;;;;;6.73;1.07;;;31.20;58.50;;;;;;5074528;28;20180;-69
2022/11/25 01:14:39;;;;;;;4.03;0.70;;;31.30;51.30;;;;;;5074869;28;20251;-69
2022/11/25 01:17:07;;;;;;;3.93;0.73;;;30.60;49.80;;;;;;5074848;28;20175;-68
2022/11/25 01:19:38;;;;;;;0.87;0.50;;;30.50;48.60;;;;;;5073238;28;20218;-72
2022/11/25 01:22:09;;;;;;;6.17;1.20;;;30.60;52.90;;;;;;5073804;28;20521;-70
2022/11/25 01:24:37;;;;;;;1.60;0.70;;;31.10;54.40;;;;;;5074674;28;20671;-68
2022/11/25 01:27:05;;;;;;;3.13;0.77;;;30.90;51.50;;;;;;5074572;28;20301;-70
2022/11/25 01:29:33;;;;;;;4.73;0.67;;;30.70;51.50;;;;;;5074578;28;20176;-68
2022/11/25 01:32:01;;;;;;;2.37;0.90;;;30.50;47.20;;;;;;5074431;28;20695;-69
2022/11/25 01:34:31;;;;;;;2.43;0.73;;;30.70;46.70;;;;;;5074411;28;20172;-68
2022/11/25 01:36:59;;;;;;;1.80;0.60;;;31.00;48.70;;;;;;5074506;28;20184;-71
2022/11/25 01:39:27;;;;;;;2.00;0.70;;;32.10;46.40;;;;;;5074491;28;20173;-69
2022/11/25 01:41:54;;;;;;;2.67;0.60;;;31.90;44.30;;;;;;5074188;28;20195;-68
2022/11/25 01:44:26;;;;;;;4.07;1.03;;;32.00;53.80;;;;;;5074103;28;20212;-68
2022/11/25 01:47:22;;;;;;;5.20;0.50;;;32.10;53.40;;;;;;5074300;28;20216;-68
2022/11/25 01:49:59;;;;;;;2.97;0.45;;;32.50;52.20;;;;;;5074249;28;20187;-68
2022/11/25 01:52:35;;;;;;;5.43;0.75;;;32.70;43.30;;;;;;5073985;28;20218;-67
2022/11/25 01:55:10;;;;;;;1.83;0.50;;;32.00;37.80;;;;;;5074452;28;20176;-67
2022/11/25 01:57:59;;;;;;;2.03;0.67;;;30.50;38.00;;;;;;5073833;28;20195;-67
2022/11/25 02:00:27;;;;;;;4.20;0.80;;;29.30;42.40;;;;;;5074302;28;20164;-67
2022/11/25 02:02:56;;;;;;;3.00;0.87;;;29.80;44.40;;;;;;5089495;28;20329;-71
2022/11/25 02:05:50;;;;;;;3.30;1.03;;;29.70;41.80;;;;;;5073417;28;20550;-68
2022/11/25 02:08:20;;;;;;;5.80;0.60;;;29.20;42.40;;;;;;5073676;28;20268;-68
2022/11/25 02:10:48;;;;;;;1.63;0.53;;;29.50;44.70;;;;;;5073849;28;20178;-68
2022/11/25 02:13:16;;;;;;;1.40;0.60;;;29.60;43.00;;;;;;5073410;28;20176;-69
2022/11/25 02:15:43;;;;;;;2.33;0.63;;;30.20;42.00;;;;;;5073580;28;20218;-67
2022/11/25 02:18:11;;;;;;;1.67;0.60;;;30.30;43.90;;;;;;5073838;28;20645;-69
2022/11/25 02:20:40;;;;;;;2.87;0.60;;;30.70;44.20;;;;;;5073459;28;20535;-69
2022/11/25 02:23:27;;;;;;;2.30;0.60;;;30.60;40.20;;;;;;5073640;28;20167;-67
2022/11/25 02:25:55;;;;;;;6.57;0.73;;;30.70;40.00;;;;;;5073499;28;20214;-68
2022/11/25 02:28:26;;;;;;;2.37;0.60;;;30.80;40.50;;;;;;5073400;28;20245;-68
2022/11/25 02:30:54;;;;;;;2.37;0.77;;;31.10;43.30;;;;;;5073270;28;20179;-70
2022/11/25 02:33:22;;;;;;;1.13;0.40;;;30.20;36.80;;;;;;5072844;28;20279;-71
2022/11/25 02:35:58;;;;;;;0.73;0.50;;;30.60;40.40;;;;;;5073415;28;20172;-69
2022/11/25 02:38:32;;;;;;;2.87;0.50;;;31.00;43.70;;;;;;5073288;28;20228;-70
2022/11/25 02:41:18;;;;;;;0.83;0.40;;;31.60;38.30;;;;;;5073440;28;20520;-69
2022/11/25 02:43:46;;;;;;;2.20;0.87;;;31.90;37.10;;;;;;5073598;28;20660;-68
2022/11/25 02:46:17;;;;;;;6.90;2.77;;;32.10;44.90;;;;;;5073024;28;20219;-68
2022/11/25 02:48:45;;;;;;;5.40;2.23;;;31.70;79.40;;;;;;5073153;28;20194;-69
2022/11/25 02:51:16;;;;;;;9.50;3.60;;;31.30;58.90;;;;;;5073085;28;20180;-72
2022/11/25 02:53:44;;;;;;;7.80;2.70;;;30.40;80.20;;;;;;5073069;28;20175;-69
2022/11/25 02:56:14;;;;;;;8.43;2.80;;;29.90;76.20;;;;;;5073039;28;20176;-68
2022/11/25 02:58:42;;;;;;;8.57;2.50;;;29.90;90.70;;;;;;5073044;28;20575;-67
2022/11/25 03:01:10;;;;;;;10.83;3.43;;;30.00;91.10;;;;;;5072622;28;20175;-67
2022/11/25 03:03:38;;;;;;;10.57;4.00;;;30.20;92.60;;;;;;5073195;28;20172;-67
2022/11/25 03:06:06;;;;;;;9.20;4.57;;;30.00;99.90;;;;;;5088267;28;20224;-67
2022/11/25 03:08:34;;;;;;;11.17;4.37;;;30.20;99.90;;;;;;5072848;28;20175;-69
2022/11/25 03:11:02;;;;;;;7.47;3.17;;;30.30;99.90;;;;;;5072970;28;20182;-68
2022/11/25 03:13:30;;;;;;;8.53;3.67;;;30.60;99.90;;;;;;5072741;28;20175;-67
2022/11/25 03:15:58;;;;;;;11.97;4.23;;;30.50;99.90;;;;;;5072865;28;20180;-67
2022/11/25 03:18:26;;;;;;;8.33;4.13;;;30.30;99.90;;;;;;5072795;28;20176;-67
2022/11/25 03:20:55;;;;;;;8.87;4.40;;;30.20;99.90;;;;;;5072831;28;20164;-68
2022/11/25 03:23:23;;;;;;;6.03;3.20;;;30.00;99.90;;;;;;5073001;28;20180;-68
2022/11/25 03:25:52;;;;;;;7.17;3.37;;;29.80;99.90;;;;;;5088446;28;20176;-68
2022/11/25 03:28:20;;;;;;;7.53;3.73;;;29.90;99.90;;;;;;5072915;28;20180;-68
2022/11/25 03:30:48;;;;;;;9.20;4.20;;;30.10;99.90;;;;;;5072737;28;20209;-69
2022/11/25 03:33:15;;;;;;;7.00;3.50;;;30.10;99.90;;;;;;5072705;28;20703;-70
2022/11/25 03:35:43;;;;;;;5.90;3.67;;;29.80;99.90;;;;;;5072544;28;20215;-68
2022/11/25 03:38:11;;;;;;;10.10;3.83;;;30.10;99.90;;;;;;5072633;28;20199;-71
2022/11/25 03:40:39;;;;;;;6.53;3.43;;;30.10;99.90;;;;;;5072832;28;20630;-68
2022/11/25 03:43:07;;;;;;;7.87;3.17;;;30.30;99.90;;;;;;5072611;28;20176;-67
2022/11/25 03:45:34;;;;;;;10.03;3.53;;;30.30;99.90;;;;;;5076129;28;20176;-67
2022/11/25 03:48:02;;;;;;;5.27;3.33;;;30.40;99.90;;;;;;5076516;28;20235;-67
2022/11/25 03:50:30;;;;;;;8.93;4.30;;;29.90;99.90;;;;;;5077129;28;20221;-67
2022/11/25 03:52:58;;;;;;;12.67;3.80;;;29.50;99.90;;;;;;5076136;28;20202;-67
2022/11/25 03:55:25;;;;;;;10.07;3.40;;;29.60;99.90;;;;;;5076173;28;20168;-67
2022/11/25 03:57:53;;;;;;;6.53;3.60;;;29.30;99.90;;;;;;5076118;28;20178;-67
2022/11/25 04:00:21;;;;;;;10.83;3.63;;;29.30;99.90;;;;;;5076084;28;20572;-67
2022/11/25 04:02:49;;;;;;;12.03;3.90;;;29.70;99.90;;;;;;5076167;28;20532;-67
2022/11/25 04:05:17;;;;;;;10.67;3.73;;;29.40;99.90;;;;;;5075760;28;20277;-67
2022/11/25 04:07:45;;;;;;;8.60;3.47;;;28.80;99.90;;;;;;5075840;28;20282;-67
2022/11/25 04:10:12;;;;;;;8.87;3.57;;;28.80;99.90;;;;;;5073054;28;20650;-69
2022/11/25 04:12:47;;;;;;;9.73;3.87;;;28.80;99.90;;;;;;5067723;28;20173;-74
2022/11/25 04:15:18;;;;;;;13.77;3.77;;;28.70;99.90;;;;;;5062793;28;20173;-71
2022/11/25 04:17:47;;;;;;;6.07;3.40;;;28.80;99.90;;;;;;5053792;28;20207;-70
2022/11/25 04:20:15;;;;;;;7.40;3.40;;;29.10;99.90;;;;;;5053237;28;20227;-70
2022/11/25 04:22:43;;;;;;;9.90;3.33;;;29.10;99.90;;;;;;5054223;28;20263;-69
2022/11/25 04:25:12;;;;;;;13.30;3.93;;;29.00;99.90;;;;;;5067476;28;20263;-70
2022/11/25 04:27:39;;;;;;;5.20;3.17;;;29.30;99.90;;;;;;5088982;28;20223;-74
2022/11/25 04:30:08;;;;;;;6.37;3.27;;;29.30;99.90;;;;;;5067957;28;20672;-73
2022/11/25 04:32:38;;;;;;;8.70;3.13;;;29.50;99.90;;;;;;5074187;28;20176;-70
2022/11/25 04:35:06;;;;;;;11.13;3.43;;;29.10;99.90;;;;;;5073357;28;20642;-70
2022/11/25 04:37:34;;;;;;;4.87;2.90;;;29.30;99.90;;;;;;5072843;28;20180;-71
2022/11/25 04:40:02;;;;;;;8.47;3.20;;;29.60;99.90;;;;;;5073213;28;20191;-73
2022/11/25 04:42:36;;;;;;;6.27;3.20;;;29.70;99.90;;;;;;5057947;28;20245;-72
2022/11/25 04:45:07;;;;;;;7.40;3.07;;;30.10;99.90;;;;;;5072769;28;20240;-73
2022/11/25 04:47:36;;;;;;;6.53;2.83;;;29.90;99.90;;;;;;5073636;28;20216;-74
2022/11/25 04:50:06;;;;;;;7.07;2.97;;;30.00;99.90;;;;;;5088505;28;20613;-72
2022/11/25 04:52:34;;;;;;;7.67;3.10;;;29.50;99.90;;;;;;5073737;28;20229;-78
2022/11/25 04:55:02;;;;;;;9.83;3.77;;;29.40;99.90;;;;;;5073305;28;20271;-76
2022/11/25 04:57:29;;;;;;;8.53;3.17;;;29.20;99.90;;;;;;5073014;28;20188;-76
2022/11/25 04:59:57;;;;;;;5.17;2.60;;;29.20;99.90;;;;;;5072776;28;20180;-75
2022/11/25 05:02:27;;;;;;;8.67;3.40;;;28.90;99.90;;;;;;5073532;28;20186;-76
2022/11/25 05:04:57;;;;;;;5.40;2.77;;;29.40;99.90;;;;;;5072777;28;20231;-75
2022/11/25 05:07:27;;;;;;;6.70;2.83;;;29.40;99.90;;;;;;5073293;28;20227;-72
2022/11/25 05:09:55;;;;;;;5.17;2.93;;;29.60;99.90;;;;;;5071622;28;20270;-71
2022/11/25 05:12:26;;;;;;;8.50;3.03;;;29.20;99.90;;;;;;5061507;28;20583;-79
2022/11/25 05:14:55;;;;;;;4.40;2.50;;;28.70;99.90;;;;;;5073513;28;20172;-75
2022/11/25 05:17:25;;;;;;;10.53;3.20;;;28.80;99.90;;;;;;5073283;28;20232;-75
2022/11/25 05:19:53;;;;;;;4.03;2.60;;;28.70;99.90;;;;;;5071215;28;20220;-75
2022/11/25 05:22:25;;;;;;;6.33;3.27;;;28.50;99.90;;;;;;5063935;28;20537;-72
2022/11/25 05:24:53;;;;;;;7.97;3.27;;;28.30;99.90;;;;;;5072799;28;20231;-73
2022/11/25 05:27:21;;;;;;;9.77;3.00;;;28.20;99.90;;;;;;5071021;28;20265;-75
2022/11/25 05:29:50;;;;;;;3.53;2.73;;;28.30;99.90;;;;;;5072674;28;20262;-74
2022/11/25 05:32:18;;;;;;;10.43;2.97;;;28.20;99.90;;;;;;5072580;28;20180;-71
2022/11/25 05:34:46;;;;;;;9.33;3.37;;;28.00;99.90;;;;;;5072668;28;20187;-75
2022/11/25 05:37:14;;;;;;;10.00;3.77;;;28.00;99.90;;;;;;5072932;28;20547;-76
2022/11/25 05:40:30;;;;;;;5.80;3.27;;;27.70;99.90;;;;;;5072365;28;20180;-76
2022/11/25 05:43:00;;;;;;;12.00;3.13;;;28.00;99.90;;;;;;5043392;28;20206;-70
2022/11/25 05:45:28;;;;;;;7.53;3.30;;;27.60;99.90;;;;;;5072763;28;20176;-71
2022/11/25 05:47:56;;;;;;;7.50;3.00;;;27.40;99.90;;;;;;5072270;28;20215;-73
2022/11/25 05:50:24;;;;;;;8.43;2.93;;;27.60;99.90;;;;;;5072240;28;20187;-76
2022/11/25 05:52:51;;;;;;;6.07;3.20;;;27.60;99.90;;;;;;5072824;28;20191;-77
2022/11/25 05:55:19;;;;;;;5.60;3.13;;;27.70;99.90;;;;;;5088095;28;20657;-75
2022/11/25 05:57:47;;;;;;;5.47;2.80;;;27.70;99.90;;;;;;5071969;28;20541;-77
2022/11/25 06:00:15;;;;;;;10.47;3.43;;;27.40;99.90;;;;;;5072530;28;20176;-76
2022/11/25 06:02:43;;;;;;;13.20;3.50;;;27.20;99.90;;;;;;5072470;28;20176;-71
2022/11/25 06:05:10;;;;;;;8.77;3.37;;;27.10;99.90;;;;;;5087324;28;20259;-74
2022/11/25 06:07:38;;;;;;;8.37;2.73;;;27.00;99.90;;;;;;5071607;28;20222;-77
2022/11/25 06:10:07;;;;;;;5.87;3.30;;;27.10;99.90;;;;;;5072510;28;20183;-77
2022/11/25 06:12:34;;;;;;;7.07;3.50;;;27.30;99.90;;;;;;5071622;28;20190;-73
2022/11/25 06:15:02;;;;;;;8.63;3.20;;;27.20;99.90;;;;;;5072097;28;20227;-77
2022/11/25 06:17:30;;;;;;;5.33;3.00;;;27.00;99.90;;;;;;5055471;28;20177;-76
2022/11/25 06:19:58;;;;;;;9.03;3.33;;;26.90;99.90;;;;;;5071642;28;20492;-76
2022/11/25 06:22:26;;;;;;;7.17;3.13;;;27.00;99.90;;;;;;5058736;28;20184;-74
2022/11/25 06:24:54;;;;;;;8.47;3.60;;;26.80;99.90;;;;;;5063272;28;20184;-74
2022/11/25 06:27:21;;;;;;;6.20;3.23;;;26.60;99.90;;;;;;5071383;28;20208;-75
2022/11/25 06:29:49;;;;;;;5.57;2.87;;;26.50;99.90;;;;;;5071964;28;20321;-75
2022/11/25 06:32:17;;;;;;;8.07;3.80;;;26.70;99.90;;;;;;5059881;28;20207;-75
2022/11/25 06:34:45;;;;;;;6.77;3.47;;;26.70;99.90;;;;;;5060197;28;20530;-75
2022/11/25 06:37:12;;;;;;;7.07;3.20;;;26.70;99.90;;;;;;5071307;28;20187;-77
2022/11/25 06:39:40;;;;;;;11.03;3.37;;;26.60;99.90;;;;;;5051426;28;20199;-76
2022/11/25 06:42:08;;;;;;;6.93;3.57;;;26.60;99.90;;;;;;5054421;28;20184;-76
2022/11/25 06:44:36;;;;;;;6.80;3.20;;;26.50;99.90;;;;;;5054670;28;20530;-74
2022/11/25 06:47:04;;;;;;;7.60;3.40;;;26.30;99.90;;;;;;5050974;28;20220;-76
2022/11/25 06:49:32;;;;;;;10.67;2.90;;;26.10;99.90;;;;;;5050923;28;20181;-74
2022/11/25 06:51:59;;;;;;;7.43;3.00;;;26.20;99.90;;;;;;5051861;28;20216;-77
2022/11/25 06:54:27;;;;;;;5.50;3.33;;;26.00;99.90;;;;;;5058889;28;20188;-71
2022/11/25 06:56:55;;;;;;;4.03;2.43;;;26.10;99.90;;;;;;5071349;28;20183;-77
2022/11/25 06:59:23;;;;;;;7.17;3.20;;;26.10;99.90;;;;;;5071778;28;20209;-77
2022/11/25 07:01:51;;;;;;;8.30;3.40;;;26.10;99.90;;;;;;5071423;28;20548;-77
2022/11/25 07:04:19;;;;;;;5.23;3.33;;;26.00;99.90;;;;;;5070947;28;20698;-70
2022/11/25 07:06:48;;;;;;;5.30;3.00;;;26.00;99.90;;;;;;5071550;28;20216;-74
2022/11/25 07:09:16;;;;;;;7.43;3.77;;;25.70;99.90;;;;;;5087274;28;20223;-75
2022/11/25 07:11:43;;;;;;;7.13;2.90;;;25.60;99.90;;;;;;5071438;28;20666;-73
2022/11/25 07:14:14;;;;;;;7.70;3.33;;;25.60;99.90;;;;;;5071659;28;20184;-71
2022/11/25 07:16:44;;;;;;;6.63;3.27;;;25.60;99.90;;;;;;5086746;28;20188;-70
2022/11/25 07:19:17;;;;;;;7.03;3.20;;;25.50;99.90;;;;;;5074172;28;20184;-69
2022/11/25 07:21:46;;;;;;;6.70;3.27;;;25.50;99.90;;;;;;5075432;28;20187;-74
2022/11/25 07:24:16;;;;;;;7.27;4.10;;;25.40;99.90;;;;;;5075261;28;20180;-72
2022/11/25 07:26:44;;;;;;;6.77;3.43;;;25.20;99.90;;;;;;5074917;28;20211;-73
2022/11/25 07:29:14;;;;;;;6.23;3.97;;;25.30;99.90;;;;;;5074176;28;20589;-75
2022/11/25 07:31:45;;;;;;;7.20;3.30;;;25.20;99.90;;;;;;5075191;28;20188;-74
2022/11/25 07:34:18;;;;;;;8.67;3.20;;;25.30;99.90;;;;;;5074705;28;20199;-78
2022/11/25 07:36:47;;;;;;;8.47;3.37;;;25.20;99.90;;;;;;5075314;28;20287;-73
2022/11/25 07:39:21;;;;;;;7.63;3.30;;;25.20;99.90;;;;;;5089037;28;20510;-74
2022/11/25 07:41:55;;;;;;;5.07;3.20;;;25.20;99.90;;;;;;5074209;28;20192;-71
2022/11/25 07:44:23;;;;;;;8.83;3.53;;;25.20;99.90;;;;;;5060160;28;20241;-72
2022/11/25 07:46:51;;;;;;;8.40;3.57;;;25.00;99.90;;;;;;5055033;28;20255;-75
2022/11/25 07:49:24;;;;;;;9.70;3.40;;;24.90;99.90;;;;;;5063714;28;20633;-72
2022/11/25 07:51:58;;;;;;;5.47;3.17;;;24.80;99.90;;;;;;5076026;28;20641;-77
2022/11/25 07:54:26;;;;;;;5.30;3.43;;;24.60;99.90;;;;;;5072442;28;20190;-76
2022/11/25 07:56:54;;;;;;;8.33;3.53;;;24.60;99.90;;;;;;5054994;28;20187;-73
2022/11/25 07:59:23;;;;;;;7.77;3.40;;;24.50;99.90;;;;;;5055359;28;20182;-74
2022/11/25 08:01:54;;;;;;;6.07;3.40;;;24.50;99.90;;;;;;5057668;28;20222;-75
2022/11/25 08:04:22;;;;;;;7.40;3.80;;;24.50;99.90;;;;;;5074401;28;20536;-72
2022/11/25 08:06:52;;;;;;;4.00;3.43;;;24.40;99.90;;;;;;5074927;28;20249;-71
2022/11/25 08:09:22;;;;;;;7.93;3.10;;;24.30;99.90;;;;;;5070560;28;20180;-71
2022/11/25 08:11:50;;;;;;;6.83;3.30;;;24.30;99.90;;;;;;5074069;28;20259;-71
2022/11/25 08:14:18;;;;;;;6.43;3.60;;;24.20;99.90;;;;;;5060805;28;20212;-70
2022/11/25 08:16:46;;;;;;;4.83;2.97;;;24.10;99.90;;;;;;5054522;28;20176;-72
2022/11/25 08:19:16;;;;;;;7.50;3.40;;;23.80;99.90;;;;;;5054067;28;20336;-69
2022/11/25 08:21:46;;;;;;;8.47;3.60;;;23.50;99.90;;;;;;5056023;28;20679;-69
2022/11/25 08:24:20;;;;;;;7.27;3.70;;;23.30;99.90;;;;;;5075040;28;20534;-70
2022/11/25 08:26:48;;;;;;;12.17;4.17;;;23.10;99.90;;;;;;5075892;28;20280;-71
2022/11/25 08:29:18;;;;;;;9.63;3.90;;;22.90;99.90;;;;;;5058453;28;20593;-72
2022/11/25 08:31:46;;;;;;;9.87;3.60;;;22.70;99.90;;;;;;5075501;28;20183;-68
2022/11/25 08:34:23;;;;;;;8.67;4.00;;;22.70;99.90;;;;;;5074785;28;20237;-69
2022/11/25 08:36:51;;;;;;;10.33;4.47;;;22.60;99.90;;;;;;5076766;28;20206;-70
2022/11/25 08:39:21;;;;;;;9.77;4.43;;;22.50;99.90;;;;;;5076124;28;20178;-74
2022/11/25 08:41:49;;;;;;;12.47;4.50;;;22.40;99.90;;;;;;5075526;28;20266;-75
2022/11/25 08:44:17;;;;;;;12.20;4.53;;;22.30;99.90;;;;;;5091444;28;20187;-74
2022/11/25 08:46:45;;;;;;;5.67;3.70;;;22.20;99.90;;;;;;5075032;28;20211;-71
2022/11/25 08:49:16;;;;;;;8.20;3.93;;;22.20;99.90;;;;;;5075032;28;20270;-73
2022/11/25 08:51:43;;;;;;;11.73;4.50;;;22.10;99.90;;;;;;5075053;28;20275;-70
2022/11/25 08:54:11;;;;;;;11.70;4.43;;;22.10;99.90;;;;;;5075483;28;20260;-70
2022/11/25 08:56:39;;;;;;;8.63;4.23;;;22.00;99.90;;;;;;5075238;28;20255;-69
2022/11/25 08:59:07;;;;;;;6.53;3.50;;;21.90;99.90;;;;;;5075006;28;20267;-69
2022/11/25 09:01:35;;;;;;;9.23;4.00;;;21.80;99.90;;;;;;5074388;28;20187;-71
2022/11/25 09:04:03;;;;;;;8.53;4.00;;;21.70;99.90;;;;;;5074646;28;20223;-71
2022/11/25 09:06:31;;;;;;;7.40;4.13;;;21.60;99.90;;;;;;5090266;28;20239;-69
2022/11/25 09:09:00;;;;;;;11.50;4.67;;;21.50;99.90;;;;;;5075146;28;20186;-70
2022/11/25 09:11:28;;;;;;;9.97;4.23;;;21.40;99.90;;;;;;5074718;28;20187;-69
2022/11/25 09:13:56;;;;;;;10.00;4.23;;;21.40;99.90;;;;;;5071023;28;20197;-72
2022/11/25 09:16:24;;;;;;;9.43;4.00;;;21.30;99.90;;;;;;5074900;28;20229;-69
2022/11/25 09:18:52;;;;;;;13.63;4.63;;;21.30;99.90;;;;;;5074083;28;20218;-69
2022/11/25 09:21:20;;;;;;;13.20;5.07;;;21.20;99.90;;;;;;5074331;28;20192;-69
2022/11/25 09:23:51;;;;;;;9.13;4.63;;;21.20;99.90;;;;;;5074659;28;20273;-69
2022/11/25 09:26:27;;;;;;;8.90;4.47;;;21.20;99.90;;;;;;5074636;28;20225;-71
2022/11/25 09:28:55;;;;;;;10.40;4.23;;;21.20;99.90;;;;;;5074310;28;20195;-70
2022/11/25 09:31:23;;;;;;;12.83;4.67;;;21.00;99.90;;;;;;5074386;28;20230;-70
2022/11/25 09:33:51;;;;;;;12.83;4.87;;;20.90;99.90;;;;;;5034407;28;20180;-70
2022/11/25 09:36:22;;;;;;;8.83;4.87;;;20.90;99.90;;;;;;5034582;28;20275;-70
2022/11/25 09:38:50;;;;;;;9.20;4.87;;;20.80;99.90;;;;;;5066219;28;20215;-70
2022/11/25 09:48:12;;;;;;;7.37;3.80;;;20.80;99.90;;;;;;5058147;28;20238;-71
2022/11/25 09:50:58;;;;;;;8.90;4.53;;;20.70;99.90;;;;;;5074271;28;20177;-70
2022/11/25 09:53:28;;;;;;;5.93;4.27;;;20.70;99.90;;;;;;5074346;28;20175;-71
2022/11/25 09:56:04;;;;;;;8.57;3.83;;;20.50;99.90;;;;;;5073889;28;20643;-71
2022/11/25 09:58:59;;;;;;;8.43;4.10;;;20.60;99.90;;;;;;5072271;28;20187;-71
2022/11/25 10:01:30;;;;;;;9.70;4.87;;;20.50;99.90;;;;;;5073851;28;20180;-74
2022/11/25 10:04:18;;;;;;;11.47;5.50;;;20.60;99.90;;;;;;5091119;27;20531;-72
2022/11/25 10:06:51;;;;;;;10.43;4.97;;;20.60;99.90;;;;;;5090976;28;20286;-75
2022/11/25 10:09:24;;;;;;;10.30;4.80;;;20.60;99.90;;;;;;5070864;28;20180;-76
2022/11/25 10:11:55;;;;;;;7.30;4.40;;;20.60;99.90;;;;;;5070374;28;20634;-73
2022/11/25 10:14:22;;;;;;;9.83;4.30;;;20.50;99.90;;;;;;5070483;28;20265;-72
2022/11/25 10:17:10;;;;;;;11.63;4.40;;;20.60;99.90;;;;;;5070114;28;20268;-73
2022/11/25 10:19:50;;;;;;;10.83;4.57;;;20.60;99.90;;;;;;5070613;28;20192;-75
2022/11/25 10:22:25;;;;;;;10.47;4.23;;;20.50;99.90;;;;;;5070176;28;20206;-72
2022/11/25 10:25:00;;;;;;;5.23;3.50;;;20.50;99.90;;;;;;5081205;28;20184;-72
2022/11/25 10:27:40;;;;;;;10.13;4.63;;;20.40;99.90;;;;;;5108197;28;20208;-71
2022/11/25 10:30:43;;;;;;;8.97;4.10;;;20.50;99.90;;;;;;5090568;28;20641;-71
2022/11/25 10:33:26;;;;;;;12.97;4.70;;;20.40;99.90;;;;;;5088914;28;20206;-72
2022/11/25 10:35:53;;;;;;;8.43;4.60;;;20.30;99.90;;;;;;5090160;28;20191;-71
2022/11/25 10:38:40;;;;;;;9.67;3.70;;;20.40;99.90;;;;;;5103978;28;20181;-75
2022/11/25 10:41:12;;;;;;;11.57;3.77;;;20.30;99.90;;;;;;5110481;28;20214;-74
2022/11/25 10:43:43;;;;;;;8.57;3.80;;;20.10;99.90;;;;;;5110054;28;20206;-75
2022/11/25 10:46:28;;;;;;;10.33;3.97;;;20.00;99.90;;;;;;5110457;28;20268;-70
2022/11/25 10:49:02;;;;;;;8.47;3.87;;;19.90;99.90;;;;;;5091684;28;20513;-72
2022/11/25 10:51:49;;;;;;;11.10;4.20;;;20.10;99.90;;;;;;5090307;28;20265;-69
2022/11/25 10:54:22;;;;;;;13.23;3.40;;;20.10;99.90;;;;;;5089842;28;20179;-71
2022/11/25 10:56:55;;;;;;;11.17;4.33;;;20.10;99.90;;;;;;5089890;28;20232;-70
2022/11/25 10:59:25;;;;;;;10.67;3.83;;;20.10;99.90;;;;;;5109979;28;20177;-70
2022/11/25 11:02:12;;;;;;;8.57;3.20;;;20.10;99.90;;;;;;5109703;28;20542;-70
2022/11/25 11:05:16;;;;;;;7.90;3.17;;;20.20;99.90;;;;;;5110609;28;20181;-70
2022/11/25 11:07:46;;;;;;;8.03;3.30;;;20.20;99.90;;;;;;5101362;28;20177;-70
2022/11/25 11:10:22;;;;;;;5.53;2.90;;;20.20;99.90;;;;;;5089769;28;20182;-70
2022/11/25 11:12:58;;;;;;;8.77;3.00;;;20.20;99.90;;;;;;5089454;28;20171;-71
2022/11/25 11:15:40;;;;;;;5.83;3.27;;;20.10;99.90;;;;;;5081605;28;20527;-71
2022/11/25 11:18:27;;;;;;;6.97;3.50;;;20.20;99.90;;;;;;5085301;28;20218;-72
2022/11/25 11:20:59;;;;;;;9.63;3.00;;;20.20;99.90;;;;;;5077876;28;20178;-73
2022/11/25 11:23:28;;;;;;;8.53;2.87;;;20.20;99.90;;;;;;5096060;28;20298;-73
2022/11/25 11:26:02;;;;;;;7.17;2.80;;;20.20;99.90;;;;;;5096074;28;20572;-76
2022/11/25 11:28:39;;;;;;;6.77;2.93;;;20.20;99.90;;;;;;5082367;28;20575;-74
2022/11/25 11:31:32;;;;;;;13.43;2.93;;;20.20;99.90;;;;;;5075761;28;20211;-74
2022/11/25 11:34:33;;;;;;;7.20;3.07;;;20.20;99.90;;;;;;5075273;28;20257;-71
2022/11/25 11:37:19;;;;;;;5.63;2.63;;;20.10;99.90;;;;;;5076060;28;20205;-71
2022/11/25 11:40:21;;;;;;;9.70;2.67;;;20.10;99.90;;;;;;5095846;28;20195;-76
2022/11/25 11:42:58;;;;;;;8.87;3.10;;;20.00;99.90;;;;;;5095602;28;20221;-75
2022/11/25 11:45:44;;;;;;;7.03;2.97;;;20.00;99.90;;;;;;5096043;28;20199;-71
2022/11/25 11:48:40;;;;;;;7.93;2.87;;;20.00;99.90;;;;;;5094005;28;20181;-71
2022/11/25 11:51:34;;;;;;;7.43;2.97;;;20.00;99.90;;;;;;5095890;28;20532;-71
2022/11/25 11:54:25;;;;;;;6.37;2.80;;;20.10;99.90;;;;;;5096186;28;20275;-72
2022/11/25 11:57:33;;;;;;;6.37;2.80;;;20.10;99.90;;;;;;5057566;28;20212;-71
2022/11/25 12:00:11;;;;;;;7.00;2.50;;;20.10;99.90;;;;;;5062263;28;20182;-76
2022/11/25 12:02:59;;;;;;;6.03;3.20;;;20.00;99.90;;;;;;5074669;28;20686;-75
2022/11/25 12:05:30;;;;;;;6.57;2.87;;;20.00;99.90;;;;;;5074974;28;20210;-75
2022/11/25 12:08:20;;;;;;;7.07;2.70;;;20.10;99.90;;;;;;5075875;28;20577;-76
2022/11/25 12:10:59;;;;;;;7.53;2.90;;;20.00;99.90;;;;;;5074806;28;20180;-73
2022/11/25 12:13:52;;;;;;;5.93;2.43;;;20.00;99.90;;;;;;5087390;28;20630;-74
2022/11/25 12:16:51;;;;;;;7.33;3.57;;;20.00;99.90;;;;;;5094640;28;20178;-72
2022/11/25 12:19:43;;;;;;;8.23;3.23;;;20.00;99.90;;;;;;5069812;28;20275;-74
2022/11/25 12:22:50;;;;;;;10.50;3.10;;;19.90;99.90;;;;;;5074430;28;20638;-73
2022/11/25 12:25:24;;;;;;;6.00;3.03;;;19.80;99.90;;;;;;5086384;28;20274;-75
2022/11/25 12:28:28;;;;;;;7.80;3.20;;;19.80;99.90;;;;;;5094683;28;20266;-73
2022/11/25 12:31:12;;;;;;;4.80;2.67;;;19.90;99.90;;;;;;5091302;28;20224;-73
2022/11/25 12:34:05;;;;;;;7.13;2.90;;;19.80;99.90;;;;;;5094670;28;20171;-74
2022/11/25 12:36:45;;;;;;;8.73;3.67;;;19.80;99.90;;;;;;5082317;28;20201;-70
2022/11/25 12:39:33;;;;;;;10.73;3.30;;;19.80;99.90;;;;;;5054334;28;20187;-72
2022/11/25 12:42:11;;;;;;;8.17;2.60;;;19.80;99.90;;;;;;5059173;28;20186;-70
2022/11/25 12:44:52;;;;;;;8.43;3.10;;;19.80;99.90;;;;;;5088568;28;20189;-70
2022/11/25 12:47:20;;;;;;;9.93;3.10;;;19.80;99.90;;;;;;5074826;28;20633;-70
2022/11/25 12:49:50;;;;;;;6.90;3.33;;;19.80;99.90;;;;;;5074472;28;20637;-70
2022/11/25 12:52:46;;;;;;;7.07;3.20;;;19.80;99.90;;;;;;5074504;28;20609;-70
2022/11/25 12:55:17;;;;;;;7.07;3.00;;;19.80;99.90;;;;;;5086337;28;20186;-70
2022/11/25 12:57:54;;;;;;;5.03;2.60;;;19.80;99.90;;;;;;5094641;28;20194;-70
2022/11/25 13:00:28;;;;;;;12.37;3.20;;;19.70;99.90;;;;;;5094631;28;20561;-69
2022/11/25 13:03:31;;;;;;;9.17;3.10;;;19.60;99.90;;;;;;5093806;28;20229;-69
2022/11/25 13:05:58;;;;;;;9.03;3.47;;;19.50;99.90;;;;;;5037241;28;20196;-70
2022/11/25 13:08:35;;;;;;;8.33;3.13;;;19.30;99.90;;;;;;5054294;28;20537;-70
2022/11/25 13:11:27;;;;;;;14.30;3.70;;;19.30;99.90;;;;;;5074826;28;20210;-70
2022/11/25 13:14:13;;;;;;;6.27;2.90;;;19.20;99.90;;;;;;5093172;28;20515;-69
2022/11/25 13:16:42;;;;;;;4.80;2.63;;;19.20;99.90;;;;;;5073603;28;20191;-70
2022/11/25 13:19:11;;;;;;;13.33;3.40;;;19.10;99.90;;;;;;5074241;28;20633;-70
2022/11/25 13:22:01;;;;;;;9.33;3.00;;;19.10;99.90;;;;;;5073604;28;20633;-70
2022/11/25 13:24:40;;;;;;;11.50;3.50;;;19.00;99.90;;;;;;5074632;28;20198;-70